sensor_id;sensor_type;location;lat;lon;timestamp;pressure;altitude;pressure_sealevel;temperature;humidity
29879;BME280;16752;53.364;-1.488;2023-05-19T00:01:30;101510.03;;;22.36;37.91
29879;BME280;16752;53.364;-1.488;2023-05-19T00:04:22;101435.34;;;21.89;38.35
29879;BME280;16752;53.364;-1.488;2023-05-19T00:07:14;101416.50;;;21.73;38.35
29879;BME280;16752;53.364;-1.488;2023-05-19T00:10:04;101570.81;;;22.70;37.94
29879;BME280;16752;53.364;-1.488;2023-05-19T00:12:52;101579.53;;;22.72;38.37
29879;BME280;16752;53.364;-1.488;2023-05-19T00:15:40;101587.00;;;22.68;38.23
29879;BME280;16752;53.364;-1.488;2023-05-19T00:18:31;101436.56;;;21.77;37.77
29879;BME280;16752;53.364;-1.488;2023-05-19T00:21:16;101545.22;;;22.49;38.24
29879;BME280;16752;53.364;-1.488;2023-05-19T00:24:01;101496.38;;;22.12;38.20
29879;BME280;16752;53.364;-1.488;2023-05-19T00:26:45;101522.41;;;22.37;38.50
29879;BME280;16752;53.364;-1.488;2023-05-19T00:29:29;101490.06;;;22.13;38.18
29879;BME280;16752;53.364;-1.488;2023-05-19T00:32:13;101429.94;;;21.81;38.43
29879;BME280;16752;53.364;-1.488;2023-05-19T00:34:59;101420.47;;;21.69;38.34
29879;BME280;16752;53.364;-1.488;2023-05-19T00:37:43;101548.50;;;22.43;38.26
29879;BME280;16752;53.364;-1.488;2023-05-19T00:40:30;101595.47;;;22.64;37.93
29879;BME280;16752;53.364;-1.488;2023-05-19T00:43:15;101468.97;;;21.82;38.13
29879;BME280;16752;53.364;-1.488;2023-05-19T00:46:02;101441.19;;;21.75;38.00
29879;BME280;16752;53.364;-1.488;2023-05-19T00:48:54;101435.31;;;21.72;37.74
29879;BME280;16752;53.364;-1.488;2023-05-19T00:51:39;101410.72;;;21.50;37.79
29879;BME280;16752;53.364;-1.488;2023-05-19T00:54:24;101518.53;;;22.22;37.59
29879;BME280;16752;53.364;-1.488;2023-05-19T00:57:14;101585.09;;;22.61;37.38
29879;BME280;16752;53.364;-1.488;2023-05-19T01:00:03;101447.53;;;21.74;37.38
29879;BME280;16752;53.364;-1.488;2023-05-19T01:02:54;101583.41;;;22.60;37.17
29879;BME280;16752;53.364;-1.488;2023-05-19T01:05:42;101521.66;;;22.17;37.74
29879;BME280;16752;53.364;-1.488;2023-05-19T01:08:34;101482.41;;;21.90;36.92
29879;BME280;16752;53.364;-1.488;2023-05-19T01:11:19;101410.13;;;21.56;37.11
29879;BME280;16752;53.364;-1.488;2023-05-19T01:14:04;101436.47;;;21.69;37.47
29879;BME280;16752;53.364;-1.488;2023-05-19T01:16:54;101482.66;;;21.97;37.62
29879;BME280;16752;53.364;-1.488;2023-05-19T01:19:55;101559.78;;;22.37;37.82
29879;BME280;16752;53.364;-1.488;2023-05-19T01:32:06;101435.25;;;21.54;38.23
29879;BME280;16752;53.364;-1.488;2023-05-19T01:34:55;101573.81;;;22.39;38.47
29879;BME280;16752;53.364;-1.488;2023-05-19T01:37:41;101514.38;;;22.00;38.75
29879;BME280;16752;53.364;-1.488;2023-05-19T01:40:48;101487.94;;;21.79;38.85
29879;BME280;16752;53.364;-1.488;2023-05-19T01:43:48;101588.84;;;22.40;38.63
29879;BME280;16752;53.364;-1.488;2023-05-19T01:46:33;101464.50;;;21.73;38.55
29879;BME280;16752;53.364;-1.488;2023-05-19T01:52:10;101498.16;;;21.84;38.41
29879;BME280;16752;53.364;-1.488;2023-05-19T01:54:58;101414.66;;;21.37;38.53
29879;BME280;16752;53.364;-1.488;2023-05-19T02:12:35;101417.63;;;21.33;37.44
29879;BME280;16752;53.364;-1.488;2023-05-19T02:15:23;101474.91;;;21.66;37.45
29879;BME280;16752;53.364;-1.488;2023-05-19T02:18:13;101411.91;;;21.28;37.16
29879;BME280;16752;53.364;-1.488;2023-05-19T02:21:06;101479.69;;;21.63;36.99
29879;BME280;16752;53.364;-1.488;2023-05-19T02:23:55;101480.00;;;21.60;37.25
29879;BME280;16752;53.364;-1.488;2023-05-19T02:26:42;101569.16;;;22.14;37.49
29879;BME280;16752;53.364;-1.488;2023-05-19T02:29:37;101413.00;;;21.16;37.23
29879;BME280;16752;53.364;-1.488;2023-05-19T02:32:22;101470.22;;;21.51;37.69
29879;BME280;16752;53.364;-1.488;2023-05-19T02:35:07;101562.78;;;21.68;37.73
29879;BME280;16752;53.364;-1.488;2023-05-19T02:37:55;101478.09;;;21.33;37.38
29879;BME280;16752;53.364;-1.488;2023-05-19T02:40:40;101484.09;;;21.45;37.38
29879;BME280;16752;53.364;-1.488;2023-05-19T02:43:25;101424.69;;;21.05;37.22
29879;BME280;16752;53.364;-1.488;2023-05-19T02:46:12;101389.25;;;20.86;36.97
29879;BME280;16752;53.364;-1.488;2023-05-19T02:49:08;101423.69;;;20.97;37.30
29879;BME280;16752;53.364;-1.488;2023-05-19T02:52:02;101419.94;;;20.90;37.47
29879;BME280;16752;53.364;-1.488;2023-05-19T02:54:53;101578.72;;;21.87;37.49
29879;BME280;16752;53.364;-1.488;2023-05-19T02:57:41;101540.19;;;21.62;37.37
29879;BME280;16752;53.364;-1.488;2023-05-19T03:00:32;101504.19;;;21.29;37.69
29879;BME280;16752;53.364;-1.488;2023-05-19T03:03:38;101430.03;;;20.77;37.54
29879;BME280;16752;53.364;-1.488;2023-05-19T03:06:31;101432.53;;;20.78;37.67
29879;BME280;16752;53.364;-1.488;2023-05-19T03:09:20;101590.16;;;21.70;38.04
29879;BME280;16752;53.364;-1.488;2023-05-19T03:12:05;101491.44;;;21.04;37.94
29879;BME280;16752;53.364;-1.488;2023-05-19T03:14:50;101431.16;;;20.64;38.25
29879;BME280;16752;53.364;-1.488;2023-05-19T03:17:35;101431.44;;;20.71;38.52
29879;BME280;16752;53.364;-1.488;2023-05-19T03:20:19;101578.50;;;21.61;38.88
29879;BME280;16752;53.364;-1.488;2023-05-19T03:23:06;101414.88;;;20.58;38.86
29879;BME280;16752;53.364;-1.488;2023-05-19T03:25:54;101417.81;;;20.55;38.65
29879;BME280;16752;53.364;-1.488;2023-05-19T03:28:56;101414.34;;;20.44;38.98
29879;BME280;16752;53.364;-1.488;2023-05-19T03:31:45;101425.53;;;20.48;38.93
29879;BME280;16752;53.364;-1.488;2023-05-19T03:34:39;101415.59;;;20.40;38.94
29879;BME280;16752;53.364;-1.488;2023-05-19T03:37:30;101410.91;;;20.33;39.04
29879;BME280;16752;53.364;-1.488;2023-05-19T03:40:20;101571.34;;;21.23;39.18
29879;BME280;16752;53.364;-1.488;2023-05-19T03:43:09;101403.06;;;20.22;39.42
29879;BME280;16752;53.364;-1.488;2023-05-19T03:49:44;101515.97;;;20.88;39.42
29879;BME280;16752;53.364;-1.488;2023-05-19T03:53:29;101391.69;;;20.10;39.49
29879;BME280;16752;53.364;-1.488;2023-05-19T03:57:16;101546.53;;;21.03;39.64
29879;BME280;16752;53.364;-1.488;2023-05-19T04:00:11;101537.28;;;21.08;40.05
29879;BME280;16752;53.364;-1.488;2023-05-19T04:02:57;101528.88;;;21.12;40.10
29879;BME280;16752;53.364;-1.488;2023-05-19T04:06:07;101369.44;;;20.11;39.78
29879;BME280;16752;53.364;-1.488;2023-05-19T04:12:11;101368.19;;;20.15;39.64
29879;BME280;16752;53.364;-1.488;2023-05-19T05:00:19;101461.28;;;20.94;39.64
29879;BME280;16752;53.364;-1.488;2023-05-19T05:04:01;101534.91;;;21.33;40.17
29879;BME280;16752;53.364;-1.488;2023-05-19T05:37:56;101437.28;;;21.32;39.15
29879;BME280;16752;53.364;-1.488;2023-05-19T05:49:07;101520.56;;;22.01;39.10
29879;BME280;16752;53.364;-1.488;2023-05-19T05:52:01;101479.94;;;21.79;38.64
29879;BME280;16752;53.364;-1.488;2023-05-19T05:55:12;101589.31;;;22.53;39.01
29879;BME280;16752;53.364;-1.488;2023-05-19T05:58:04;101418.25;;;21.55;37.71
29879;BME280;16752;53.364;-1.488;2023-05-19T06:00:59;101490.50;;;22.08;38.24
29879;BME280;16752;53.364;-1.488;2023-05-19T06:03:51;101591.72;;;22.74;37.17
29879;BME280;16752;53.364;-1.488;2023-05-19T06:06:41;101491.50;;;22.35;36.86
29879;BME280;16752;53.364;-1.488;2023-05-19T06:09:50;101497.69;;;22.53;37.50
29879;BME280;16752;53.364;-1.488;2023-05-19T06:15:47;101581.81;;;23.12;36.01
29879;BME280;16752;53.364;-1.488;2023-05-19T06:18:34;101499.00;;;22.67;35.24
29879;BME280;16752;53.364;-1.488;2023-05-19T06:21:38;101493.47;;;22.50;34.72
29879;BME280;16752;53.364;-1.488;2023-05-19T06:24:27;101443.56;;;22.15;35.80
29879;BME280;16752;53.364;-1.488;2023-05-19T06:27:57;101430.31;;;22.41;35.68
29879;BME280;16752;53.364;-1.488;2023-05-19T06:31:22;101442.38;;;22.63;34.63
29879;BME280;16752;53.364;-1.488;2023-05-19T06:34:41;101587.50;;;23.53;34.87
29879;BME280;16752;53.364;-1.488;2023-05-19T06:38:15;101438.03;;;22.62;33.87
29879;BME280;16752;53.364;-1.488;2023-05-19T06:47:02;101482.84;;;23.04;34.63
29879;BME280;16752;53.364;-1.488;2023-05-19T06:49:46;101510.06;;;23.43;34.36
29879;BME280;16752;53.364;-1.488;2023-05-19T06:52:37;101531.00;;;23.30;33.63
29879;BME280;16752;53.364;-1.488;2023-05-19T06:55:21;101541.13;;;23.88;33.86
29879;BME280;16752;53.364;-1.488;2023-05-19T06:58:06;101518.66;;;23.55;34.39
29879;BME280;16752;53.364;-1.488;2023-05-19T07:00:50;101437.75;;;23.27;34.14
29879;BME280;16752;53.364;-1.488;2023-05-19T07:03:34;101569.75;;;24.21;34.21
29879;BME280;16752;53.364;-1.488;2023-05-19T07:06:18;101503.94;;;24.11;33.38
29879;BME280;16752;53.364;-1.488;2023-05-19T07:09:02;101571.59;;;24.55;33.59
29879;BME280;16752;53.364;-1.488;2023-05-19T07:11:47;101509.47;;;24.17;33.05
29879;BME280;16752;53.364;-1.488;2023-05-19T07:14:49;101510.75;;;24.31;32.80
29879;BME280;16752;53.364;-1.488;2023-05-19T07:17:44;101420.00;;;23.86;33.04
29879;BME280;16752;53.364;-1.488;2023-05-19T07:20:31;101511.16;;;23.14;34.70
29879;BME280;16752;53.364;-1.488;2023-05-19T07:23:20;101518.50;;;24.08;34.04
29879;BME280;16752;53.364;-1.488;2023-05-19T07:26:11;101470.38;;;23.90;33.20
29879;BME280;16752;53.364;-1.488;2023-05-19T07:29:02;101455.09;;;23.74;34.18
29879;BME280;16752;53.364;-1.488;2023-05-19T07:31:45;101508.63;;;24.17;33.75
29879;BME280;16752;53.364;-1.488;2023-05-19T07:34:29;101568.50;;;24.33;34.22
29879;BME280;16752;53.364;-1.488;2023-05-19T07:37:13;101601.91;;;24.55;35.07
29879;BME280;16752;53.364;-1.488;2023-05-19T07:39:58;101537.25;;;24.16;34.38
29879;BME280;16752;53.364;-1.488;2023-05-19T07:42:57;101508.38;;;23.94;34.64
29879;BME280;16752;53.364;-1.488;2023-05-19T07:45:43;101545.16;;;24.26;34.72
29879;BME280;16752;53.364;-1.488;2023-05-19T07:48:28;101546.56;;;24.30;34.60
29879;BME280;16752;53.364;-1.488;2023-05-19T07:51:31;101465.03;;;23.38;35.50
29879;BME280;16752;53.364;-1.488;2023-05-19T07:54:15;101580.38;;;24.31;35.19
29879;BME280;16752;53.364;-1.488;2023-05-19T07:57:06;101516.22;;;23.00;37.05
29879;BME280;16752;53.364;-1.488;2023-05-19T07:59:51;101543.44;;;24.08;36.10
29879;BME280;16752;53.364;-1.488;2023-05-19T08:18:23;101621.06;;;24.77;36.29
29879;BME280;16752;53.364;-1.488;2023-05-19T08:21:20;101510.75;;;24.05;36.15
29879;BME280;16752;53.364;-1.488;2023-05-19T08:29:50;101592.31;;;24.95;35.91
29879;BME280;16752;53.364;-1.488;2023-05-19T08:35:39;101539.00;;;24.84;35.38
29879;BME280;16752;53.364;-1.488;2023-05-19T09:02:41;101566.19;;;24.47;37.13
29879;BME280;16752;53.364;-1.488;2023-05-19T09:08:34;101623.03;;;24.66;37.76
29879;BME280;16752;53.364;-1.488;2023-05-19T09:11:26;101568.13;;;24.02;39.14
29879;BME280;16752;53.364;-1.488;2023-05-19T09:18:08;101470.34;;;22.86;39.96
29879;BME280;16752;53.364;-1.488;2023-05-19T09:21:26;101510.94;;;23.26;40.62
29879;BME280;16752;53.364;-1.488;2023-05-19T09:32:29;101628.19;;;24.52;37.99
29879;BME280;16752;53.364;-1.488;2023-05-19T09:47:02;101539.28;;;23.62;38.83
29879;BME280;16752;53.364;-1.488;2023-05-19T09:54:07;101542.72;;;23.72;39.65
29879;BME280;16752;53.364;-1.488;2023-05-19T10:00:13;101577.53;;;24.06;39.14
29879;BME280;16752;53.364;-1.488;2023-05-19T10:03:53;101554.06;;;24.00;39.16
29879;BME280;16752;53.364;-1.488;2023-05-19T10:06:59;101501.25;;;23.51;38.21
29879;BME280;16752;53.364;-1.488;2023-05-19T10:09:59;101467.66;;;23.82;37.03
29879;BME280;16752;53.364;-1.488;2023-05-19T10:13:07;101631.44;;;24.37;39.77
29879;BME280;16752;53.364;-1.488;2023-05-19T10:16:35;101636.41;;;25.09;36.07
29879;BME280;16752;53.364;-1.488;2023-05-19T10:19:23;101581.31;;;24.64;37.44
29879;BME280;16752;53.364;-1.488;2023-05-19T10:23:00;101631.69;;;24.94;36.43
29879;BME280;16752;53.364;-1.488;2023-05-19T10:25:45;101546.50;;;24.72;35.49
29879;BME280;16752;53.364;-1.488;2023-05-19T10:32:29;101589.69;;;25.52;34.73
29879;BME280;16752;53.364;-1.488;2023-05-19T10:38:52;101482.19;;;25.37;35.79
29879;BME280;16752;53.364;-1.488;2023-05-19T10:42:03;101616.63;;;25.02;36.60
29879;BME280;16752;53.364;-1.488;2023-05-19T10:45:05;101498.69;;;25.18;35.73
29879;BME280;16752;53.364;-1.488;2023-05-19T10:47:51;101516.84;;;25.87;34.06
29879;BME280;16752;53.364;-1.488;2023-05-19T10:50:37;101545.69;;;26.49;32.86
29879;BME280;16752;53.364;-1.488;2023-05-19T10:53:29;101504.72;;;26.47;32.02
29879;BME280;16752;53.364;-1.488;2023-05-19T10:56:31;101561.47;;;27.06;32.27
29879;BME280;16752;53.364;-1.488;2023-05-19T10:59:35;101484.72;;;26.10;32.93
29879;BME280;16752;53.364;-1.488;2023-05-19T11:05:51;101551.84;;;27.34;31.13
29879;BME280;16752;53.364;-1.488;2023-05-19T11:08:41;101548.22;;;27.80;29.94
29879;BME280;16752;53.364;-1.488;2023-05-19T11:11:43;101613.72;;;27.34;31.65
29879;BME280;16752;53.364;-1.488;2023-05-19T11:14:31;101490.03;;;27.41;29.46
29879;BME280;16752;53.364;-1.488;2023-05-19T11:20:59;101588.81;;;28.37;29.82
29879;BME280;16752;53.364;-1.488;2023-05-19T11:34:05;101503.25;;;27.65;29.85
29879;BME280;16752;53.364;-1.488;2023-05-19T11:36:53;101610.75;;;28.34;28.39
29879;BME280;16752;53.364;-1.488;2023-05-19T11:39:40;101612.88;;;29.26;26.97
29879;BME280;16752;53.364;-1.488;2023-05-19T11:45:06;101499.25;;;27.91;27.55
29879;BME280;16752;53.364;-1.488;2023-05-19T11:47:51;101567.09;;;27.19;28.02
29879;BME280;16752;53.364;-1.488;2023-05-19T11:57:10;101521.22;;;27.35;29.69
29879;BME280;16752;53.364;-1.488;2023-05-19T12:09:44;101613.22;;;27.31;30.47
29879;BME280;16752;53.364;-1.488;2023-05-19T12:12:31;101595.44;;;26.29;31.46
29879;BME280;16752;53.364;-1.488;2023-05-19T12:15:22;101565.47;;;27.10;30.65
29879;BME280;16752;53.364;-1.488;2023-05-19T12:18:06;101530.78;;;26.69;31.00
29879;BME280;16752;53.364;-1.488;2023-05-19T12:21:03;101531.44;;;26.32;31.40
29879;BME280;16752;53.364;-1.488;2023-05-19T12:38:41;101601.16;;;26.73;31.05
29879;BME280;16752;53.364;-1.488;2023-05-19T12:45:44;101464.13;;;25.15;32.36
29879;BME280;16752;53.364;-1.488;2023-05-19T12:48:57;101604.84;;;27.72;29.59
29879;BME280;16752;53.364;-1.488;2023-05-19T13:03:38;101560.13;;;28.29;29.18
29879;BME280;16752;53.364;-1.488;2023-05-19T13:06:29;101603.09;;;29.03;29.45
29879;BME280;16752;53.364;-1.488;2023-05-19T13:16:46;101475.72;;;29.36;28.91
29879;BME280;16752;53.364;-1.488;2023-05-19T13:20:09;101588.78;;;30.90;26.14
29879;BME280;16752;53.364;-1.488;2023-05-19T13:22:53;101542.97;;;30.21;26.51
29879;BME280;16752;53.364;-1.488;2023-05-19T13:25:59;101591.75;;;28.86;27.94
29879;BME280;16752;53.364;-1.488;2023-05-19T13:28:50;101591.75;;;28.72;28.68
29879;BME280;16752;53.364;-1.488;2023-05-19T13:31:37;101480.50;;;27.97;28.55
29879;BME280;16752;53.364;-1.488;2023-05-19T13:34:25;101508.31;;;29.62;27.22
29879;BME280;16752;53.364;-1.488;2023-05-19T13:37:28;101506.81;;;29.53;27.69
29879;BME280;16752;53.364;-1.488;2023-05-19T13:40:18;101497.63;;;29.75;26.67
29879;BME280;16752;53.364;-1.488;2023-05-19T13:43:07;101470.44;;;28.57;28.43
29879;BME280;16752;53.364;-1.488;2023-05-19T13:45:52;101534.06;;;30.27;27.02
29879;BME280;16752;53.364;-1.488;2023-05-19T13:49:03;101584.22;;;29.25;29.14
29879;BME280;16752;53.364;-1.488;2023-05-19T13:55:25;101586.88;;;29.67;27.58
29879;BME280;16752;53.364;-1.488;2023-05-19T13:58:12;101599.91;;;29.85;26.88
29879;BME280;16752;53.364;-1.488;2023-05-19T14:01:00;101529.81;;;29.49;27.21
29879;BME280;16752;53.364;-1.488;2023-05-19T14:03:47;101588.78;;;30.36;26.38
29879;BME280;16752;53.364;-1.488;2023-05-19T14:06:42;101577.28;;;30.68;26.78
29879;BME280;16752;53.364;-1.488;2023-05-19T14:09:56;101506.66;;;30.37;25.14
29879;BME280;16752;53.364;-1.488;2023-05-19T14:13:17;101472.88;;;29.72;25.84
29879;BME280;16752;53.364;-1.488;2023-05-19T14:19:07;101583.81;;;29.06;27.75
29879;BME280;16752;53.364;-1.488;2023-05-19T14:22:13;101577.06;;;27.71;28.82
29879;BME280;16752;53.364;-1.488;2023-05-19T14:28:31;101581.81;;;29.86;26.90
29879;BME280;16752;53.364;-1.488;2023-05-19T14:34:28;101489.41;;;28.13;28.84
29879;BME280;16752;53.364;-1.488;2023-05-19T14:37:13;101496.00;;;28.10;28.29
29879;BME280;16752;53.364;-1.488;2023-05-19T14:40:06;101577.88;;;28.89;27.90
29879;BME280;16752;53.364;-1.488;2023-05-19T14:43:01;101575.31;;;28.52;28.67
29879;BME280;16752;53.364;-1.488;2023-05-19T14:45:51;101502.72;;;28.86;27.65
29879;BME280;16752;53.364;-1.488;2023-05-19T14:48:43;101514.16;;;30.41;25.74
29879;BME280;16752;53.364;-1.488;2023-05-19T14:55:31;101565.09;;;31.06;24.44
29879;BME280;16752;53.364;-1.488;2023-05-19T14:58:37;101477.44;;;29.43;25.43
29879;BME280;16752;53.364;-1.488;2023-05-19T15:04:02;101503.41;;;30.61;25.60
29879;BME280;16752;53.364;-1.488;2023-05-19T15:06:47;101492.25;;;32.08;22.85
29879;BME280;16752;53.364;-1.488;2023-05-19T15:09:33;101521.75;;;31.91;23.23
29879;BME280;16752;53.364;-1.488;2023-05-19T15:12:25;101569.41;;;33.33;21.91
29879;BME280;16752;53.364;-1.488;2023-05-19T15:15:10;101520.63;;;34.07;20.90
29879;BME280;16752;53.364;-1.488;2023-05-19T15:17:54;101489.63;;;34.98;19.70
29879;BME280;16752;53.364;-1.488;2023-05-19T15:21:03;101471.03;;;35.18;18.70
29879;BME280;16752;53.364;-1.488;2023-05-19T15:24:24;101559.47;;;34.25;20.06
29879;BME280;16752;53.364;-1.488;2023-05-19T15:27:14;101555.63;;;33.78;19.97
29879;BME280;16752;53.364;-1.488;2023-05-19T15:30:21;101474.25;;;32.34;22.18
29879;BME280;16752;53.364;-1.488;2023-05-19T15:33:10;101502.63;;;33.01;21.74
29879;BME280;16752;53.364;-1.488;2023-05-19T15:35:56;101512.00;;;35.11;19.15
29879;BME280;16752;53.364;-1.488;2023-05-19T15:38:40;101462.50;;;36.58;16.82
29879;BME280;16752;53.364;-1.488;2023-05-19T15:41:27;101562.50;;;36.76;16.80
29879;BME280;16752;53.364;-1.488;2023-05-19T15:51:28;101549.41;;;40.25;14.80
29879;BME280;16752;53.364;-1.488;2023-05-19T15:54:48;101470.44;;;36.43;15.77
29879;BME280;16752;53.364;-1.488;2023-05-19T15:58:07;101467.44;;;35.88;17.98
29879;BME280;16752;53.364;-1.488;2023-05-19T16:12:43;101483.81;;;41.20;12.71
29879;BME280;16752;53.364;-1.488;2023-05-19T16:19:03;101423.13;;;35.57;17.65
29879;BME280;16752;53.364;-1.488;2023-05-19T16:22:40;101480.91;;;33.01;20.80
29879;BME280;16752;53.364;-1.488;2023-05-19T16:25:27;101434.41;;;31.89;21.55
29879;BME280;16752;53.364;-1.488;2023-05-19T16:28:20;101412.03;;;30.57;22.86
29879;BME280;16752;53.364;-1.488;2023-05-19T16:31:17;101547.19;;;31.84;21.96
29879;BME280;16752;53.364;-1.488;2023-05-19T16:34:01;101549.69;;;31.79;21.86
29879;BME280;16752;53.364;-1.488;2023-05-19T16:40:08;101522.59;;;30.19;23.96
29879;BME280;16752;53.364;-1.488;2023-05-19T16:43:02;101404.94;;;29.75;24.12
29879;BME280;16752;53.364;-1.488;2023-05-19T16:45:53;101457.47;;;29.38;25.99
29879;BME280;16752;53.364;-1.488;2023-05-19T16:48:45;101417.34;;;28.57;26.49
29879;BME280;16752;53.364;-1.488;2023-05-19T16:51:29;101553.91;;;29.01;27.06
29879;BME280;16752;53.364;-1.488;2023-05-19T16:54:13;101552.41;;;27.82;28.93
29879;BME280;16752;53.364;-1.488;2023-05-19T16:56:58;101483.41;;;27.81;28.42
29879;BME280;16752;53.364;-1.488;2023-05-19T16:59:42;101433.69;;;27.54;28.28
29879;BME280;16752;53.364;-1.488;2023-05-19T17:02:26;101479.56;;;27.61;28.67
29879;BME280;16752;53.364;-1.488;2023-05-19T17:05:19;101589.84;;;28.07;28.34
29879;BME280;16752;53.364;-1.488;2023-05-19T17:08:04;101569.44;;;27.60;29.28
29879;BME280;16752;53.364;-1.488;2023-05-19T17:10:48;101513.00;;;27.29;29.27
29879;BME280;16752;53.364;-1.488;2023-05-19T17:13:32;101573.50;;;27.56;29.87
29879;BME280;16752;53.364;-1.488;2023-05-19T17:16:19;101514.16;;;26.89;30.20
29879;BME280;16752;53.364;-1.488;2023-05-19T17:19:12;101524.97;;;26.80;30.20
29879;BME280;16752;53.364;-1.488;2023-05-19T17:21:56;101511.72;;;26.79;30.07
29879;BME280;16752;53.364;-1.488;2023-05-19T17:24:40;101542.00;;;26.73;30.69
29879;BME280;16752;53.364;-1.488;2023-05-19T17:27:24;101563.94;;;27.16;29.85
29879;BME280;16752;53.364;-1.488;2023-05-19T17:30:09;101579.28;;;27.07;30.43
29879;BME280;16752;53.364;-1.488;2023-05-19T17:32:53;101489.09;;;26.42;30.71
29879;BME280;16752;53.364;-1.488;2023-05-19T17:35:37;101516.88;;;26.27;31.26
29879;BME280;16752;53.364;-1.488;2023-05-19T17:38:21;101465.72;;;25.56;32.22
29879;BME280;16752;53.364;-1.488;2023-05-19T17:41:06;101552.00;;;26.56;31.27
29879;BME280;16752;53.364;-1.488;2023-05-19T17:43:53;101605.63;;;26.80;31.71
29879;BME280;16752;53.364;-1.488;2023-05-19T17:46:37;101606.06;;;27.00;31.35
29879;BME280;16752;53.364;-1.488;2023-05-19T17:49:22;101510.50;;;26.28;31.74
29879;BME280;16752;53.364;-1.488;2023-05-19T17:52:08;101531.72;;;26.06;32.00
29879;BME280;16752;53.364;-1.488;2023-05-19T17:54:56;101614.47;;;26.89;31.07
29879;BME280;16752;53.364;-1.488;2023-05-19T17:57:43;101608.56;;;26.63;31.68
29879;BME280;16752;53.364;-1.488;2023-05-19T18:00:28;101533.66;;;26.29;31.21
29879;BME280;16752;53.364;-1.488;2023-05-19T18:03:12;101571.44;;;26.27;32.02
29879;BME280;16752;53.364;-1.488;2023-05-19T18:06:04;101499.56;;;25.90;31.81
29879;BME280;16752;53.364;-1.488;2023-05-19T18:08:50;101536.41;;;26.12;31.87
29879;BME280;16752;53.364;-1.488;2023-05-19T18:11:39;101512.00;;;25.83;32.01
29879;BME280;16752;53.364;-1.488;2023-05-19T18:14:23;101623.50;;;26.26;32.55
29879;BME280;16752;53.364;-1.488;2023-05-19T18:17:07;101481.88;;;25.16;32.48
29879;BME280;16752;53.364;-1.488;2023-05-19T18:19:51;101550.56;;;25.90;31.31
29879;BME280;16752;53.364;-1.488;2023-05-19T18:22:37;101627.50;;;26.22;32.26
29879;BME280;16752;53.364;-1.488;2023-05-19T18:25:22;101581.78;;;25.91;32.25
29879;BME280;16752;53.364;-1.488;2023-05-19T18:28:06;101641.50;;;26.09;32.39
29879;BME280;16752;53.364;-1.488;2023-05-19T18:31:00;101619.22;;;25.44;34.10
29879;BME280;16752;53.364;-1.488;2023-05-19T18:33:45;101571.25;;;25.49;33.23
29879;BME280;16752;53.364;-1.488;2023-05-19T18:36:29;101597.06;;;25.42;33.58
29879;BME280;16752;53.364;-1.488;2023-05-19T18:39:17;101524.47;;;25.11;32.93
29879;BME280;16752;53.364;-1.488;2023-05-19T18:42:11;101642.53;;;25.68;33.18
29879;BME280;16752;53.364;-1.488;2023-05-19T18:44:56;101672.91;;;25.84;33.26
29879;BME280;16752;53.364;-1.488;2023-05-19T18:47:40;101588.69;;;25.28;33.15
29879;BME280;16752;53.364;-1.488;2023-05-19T18:50:24;101586.28;;;24.43;34.17
29879;BME280;16752;53.364;-1.488;2023-05-19T18:53:16;101677.72;;;25.56;33.41
29879;BME280;16752;53.364;-1.488;2023-05-19T18:56:01;101592.69;;;24.58;34.03
29879;BME280;16752;53.364;-1.488;2023-05-19T18:58:46;101629.06;;;25.19;33.55
29879;BME280;16752;53.364;-1.488;2023-05-19T19:01:30;101619.00;;;25.05;33.38
29879;BME280;16752;53.364;-1.488;2023-05-19T19:04:14;101693.63;;;24.83;33.58
29879;BME280;16752;53.364;-1.488;2023-05-19T19:06:59;101630.97;;;24.84;32.91
29879;BME280;16752;53.364;-1.488;2023-05-19T19:09:45;101642.41;;;24.94;32.46
29879;BME280;16752;53.364;-1.488;2023-05-19T19:12:29;101593.34;;;24.52;32.97
29879;BME280;16752;53.364;-1.488;2023-05-19T19:15:14;101598.72;;;24.60;33.26
29879;BME280;16752;53.364;-1.488;2023-05-19T19:18:01;101524.38;;;24.20;33.08
29879;BME280;16752;53.364;-1.488;2023-05-19T19:20:46;101521.09;;;23.92;33.50
29879;BME280;16752;53.364;-1.488;2023-05-19T19:23:33;101690.88;;;25.01;33.61
29879;BME280;16752;53.364;-1.488;2023-05-19T19:26:17;101620.16;;;24.52;33.77
29879;BME280;16752;53.364;-1.488;2023-05-19T19:29:01;101669.84;;;24.88;33.47
29879;BME280;16752;53.364;-1.488;2023-05-19T19:31:45;101612.56;;;24.47;32.97
29879;BME280;16752;53.364;-1.488;2023-05-19T19:34:29;101563.34;;;24.14;33.29
29879;BME280;16752;53.364;-1.488;2023-05-19T19:37:14;101662.06;;;24.69;33.25
29879;BME280;16752;53.364;-1.488;2023-05-19T19:39:59;101656.72;;;24.35;33.93
29879;BME280;16752;53.364;-1.488;2023-05-19T19:42:43;101610.09;;;24.28;33.90
29879;BME280;16752;53.364;-1.488;2023-05-19T19:45:28;101585.72;;;24.05;33.75
29879;BME280;16752;53.364;-1.488;2023-05-19T19:48:13;101709.84;;;24.74;33.97
29879;BME280;16752;53.364;-1.488;2023-05-19T19:51:00;101718.34;;;24.69;34.18
29879;BME280;16752;53.364;-1.488;2023-05-19T19:53:47;101663.59;;;24.37;34.23
29879;BME280;16752;53.364;-1.488;2023-05-19T19:56:31;101631.28;;;24.13;34.18
29879;BME280;16752;53.364;-1.488;2023-05-19T19:59:15;101675.16;;;24.38;33.91
29879;BME280;16752;53.364;-1.488;2023-05-19T20:02:00;101638.66;;;24.11;34.47
29879;BME280;16752;53.364;-1.488;2023-05-19T20:04:45;101648.03;;;24.15;34.18
29879;BME280;16752;53.364;-1.488;2023-05-19T20:07:29;101657.44;;;24.19;34.06
29879;BME280;16752;53.364;-1.488;2023-05-19T20:10:15;101739.38;;;24.56;34.62
29879;BME280;16752;53.364;-1.488;2023-05-19T20:12:59;101744.94;;;24.62;34.59
29879;BME280;16752;53.364;-1.488;2023-05-19T20:15:45;101646.09;;;23.99;34.97
29879;BME280;16752;53.364;-1.488;2023-05-19T20:18:29;101681.53;;;24.19;34.75
29879;BME280;16752;53.364;-1.488;2023-05-19T20:21:13;101704.94;;;24.35;35.18
29879;BME280;16752;53.364;-1.488;2023-05-19T20:23:58;101654.78;;;24.01;35.12